createdAt,value
2022-10-13T00:02:00.975Z,100380.97
2022-10-13T00:04:30.539Z,100445.38
2022-10-13T00:07:00.542Z,100450.25
2022-10-13T00:09:30.130Z,100445.41
2022-10-13T00:12:00.168Z,100441.00
2022-10-13T00:14:30.322Z,100439.41
2022-10-13T00:17:01.953Z,100446.44
2022-10-13T00:19:31.801Z,100450.94
2022-10-13T00:22:01.566Z,100439.56
2022-10-13T00:24:31.424Z,100446.28
2022-10-13T00:27:01.089Z,100451.38
2022-10-13T00:29:30.645Z,100445.56
2022-10-13T00:32:00.203Z,100443.38
2022-10-13T00:34:31.457Z,100437.31
2022-10-13T00:37:01.324Z,100444.22
2022-10-13T00:39:31.171Z,100438.03
2022-10-13T00:42:01.089Z,100448.81
2022-10-13T00:44:50.540Z,100443.84
2022-10-13T00:47:20.715Z,100440.28
2022-10-13T00:49:52.587Z,100437.38
2022-10-13T00:52:22.953Z,100433.66
2022-10-13T00:54:53.011Z,100430.19
2022-10-13T00:57:26.068Z,100432.28
2022-10-13T00:59:57.124Z,100429.72
2022-10-13T01:02:28.922Z,100430.63
2022-10-13T01:05:01.020Z,100427.06
2022-10-13T01:07:30.960Z,100429.06
2022-10-13T01:10:01.150Z,100433.28
2022-10-13T01:12:41.433Z,100441.72
2022-10-13T01:15:13.282Z,100432.63
2022-10-13T01:17:49.785Z,100440.13
2022-10-13T01:20:38.560Z,100428.25
2022-10-13T01:23:19.568Z,100434.88
2022-10-13T01:26:10.114Z,100426.53
2022-10-13T01:28:55.840Z,100436.88
2022-10-13T01:31:29.267Z,100428.13
2022-10-13T01:34:04.904Z,100430.75
2022-10-13T01:36:38.926Z,100433.47
2022-10-13T01:39:10.650Z,100427.75
2022-10-13T01:41:41.471Z,100435.91
2022-10-13T01:44:16.284Z,100431.06
2022-10-13T01:46:48.663Z,100425.28
2022-10-13T01:49:20.352Z,100416.28
2022-10-13T01:51:50.592Z,100416.53
2022-10-13T01:54:20.108Z,100419.16
2022-10-13T01:56:53.155Z,100417.44
2022-10-13T01:59:24.463Z,100415.88
2022-10-13T02:01:59.448Z,100403.84
2022-10-13T02:04:35.515Z,100409.47
2022-10-13T02:07:11.051Z,100399.34
2022-10-13T02:09:45.081Z,100400.09
2022-10-13T02:12:20.145Z,100408.38
2022-10-13T02:14:51.681Z,100406.75
2022-10-13T02:17:23.235Z,100397.28
2022-10-13T02:19:52.855Z,100400.94
2022-10-13T02:22:24.295Z,100394.53
2022-10-13T02:24:54.340Z,100397.31
2022-10-13T02:27:24.290Z,100397.19
2022-10-13T02:29:54.943Z,100399.56
2022-10-13T02:32:25.887Z,100390.97
2022-10-13T02:34:55.610Z,100398.75
2022-10-13T02:37:25.988Z,100396.31
2022-10-13T02:39:55.547Z,100393.75
2022-10-13T02:42:25.338Z,100405.03
2022-10-13T02:44:54.918Z,100405.47
2022-10-13T02:47:25.914Z,100399.41
2022-10-13T02:49:55.906Z,100402.19
2022-10-13T02:52:25.608Z,100405.59
2022-10-13T02:54:55.131Z,100405.47
2022-10-13T02:57:24.787Z,100400.22
2022-10-13T02:59:54.551Z,100403.56
2022-10-13T03:02:24.460Z,100405.41
2022-10-13T03:04:56.108Z,100397.84
2022-10-13T03:07:25.642Z,100393.16
2022-10-13T03:09:55.200Z,100390.22
2022-10-13T03:12:25.456Z,100390.22
2022-10-13T03:14:55.371Z,100389.75
2022-10-13T03:17:28.325Z,100387.03
2022-10-13T03:19:59.759Z,100394.19
2022-10-13T03:22:32.039Z,100395.81
2022-10-13T03:25:01.678Z,100392.06
2022-10-13T03:27:32.622Z,100399.03
2022-10-13T03:30:02.314Z,100391.81
2022-10-13T03:32:33.270Z,100389.69
2022-10-13T03:35:04.376Z,100387.88
2022-10-13T03:37:34.021Z,100391.41
2022-10-13T03:40:04.007Z,100393.03
2022-10-13T03:42:33.615Z,100380.50
2022-10-13T03:45:03.217Z,100387.97
2022-10-13T03:47:32.787Z,100392.34
2022-10-13T03:50:02.423Z,100383.94
2022-10-13T03:52:33.487Z,100384.34
2022-10-13T03:55:03.065Z,100381.16
2022-10-13T03:57:32.722Z,100374.66
2022-10-13T04:00:03.909Z,100375.28
2022-10-13T04:02:33.479Z,100373.88
2022-10-13T04:05:03.053Z,100365.78
2022-10-13T04:07:34.125Z,100372.34
2022-10-13T04:10:07.858Z,100371.81
2022-10-13T04:12:41.675Z,100372.03
2022-10-13T04:15:12.413Z,100367.97
2022-10-13T04:17:42.589Z,100368.34
2022-10-13T04:20:12.704Z,100369.47
2022-10-13T04:22:43.691Z,100373.84
2022-10-13T04:25:13.320Z,100367.00
2022-10-13T04:27:42.923Z,100374.81
2022-10-13T04:30:13.645Z,100371.69
2022-10-13T04:32:43.654Z,100375.63
2022-10-13T04:35:13.239Z,100380.63
2022-10-13T04:37:45.541Z,100379.19
2022-10-13T04:40:15.411Z,100378.09
2022-10-13T04:42:45.053Z,100382.81
2022-10-13T04:45:14.582Z,100388.47
2022-10-13T04:47:44.415Z,100380.25
2022-10-13T04:50:14.018Z,100392.31
2022-10-13T04:52:44.919Z,100389.97
2022-10-13T04:55:14.756Z,100388.78
2022-10-13T04:57:44.567Z,100391.88
2022-10-13T05:00:14.930Z,100390.38
2022-10-13T05:02:44.671Z,100387.53
2022-10-13T05:05:14.518Z,100393.50
2022-10-13T05:07:45.421Z,100393.06
2022-10-13T05:10:15.256Z,100388.25
2022-10-13T05:12:45.671Z,100402.25
2022-10-13T05:15:16.325Z,100392.94
2022-10-13T05:17:46.427Z,100391.97
2022-10-13T05:20:17.719Z,100399.31
2022-10-13T05:22:48.705Z,100400.88
2022-10-13T05:25:18.520Z,100403.31
2022-10-13T05:27:48.250Z,100399.56
2022-10-13T05:30:17.832Z,100410.97
2022-10-13T05:32:51.475Z,100408.03
2022-10-13T05:35:23.210Z,100414.72
2022-10-13T05:37:54.188Z,100422.00
2022-10-13T05:40:24.087Z,100426.34
2022-10-13T05:42:54.591Z,100416.69
2022-10-13T05:45:24.586Z,100414.00
2022-10-13T05:47:54.307Z,100419.53
2022-10-13T05:50:24.057Z,100418.69
2022-10-13T05:52:55.058Z,100422.59
2022-10-13T05:55:24.704Z,100413.38
2022-10-13T05:57:54.300Z,100421.53
2022-10-13T06:00:24.840Z,100424.09
2022-10-13T06:02:56.858Z,100417.84
2022-10-13T06:05:27.697Z,100430.25
2022-10-13T06:07:58.746Z,100429.66
2022-10-13T06:10:28.441Z,100421.06
2022-10-13T06:12:59.371Z,100425.09
2022-10-13T06:15:29.788Z,100428.00
2022-10-13T06:17:59.664Z,100418.16
2022-10-13T06:20:29.557Z,100429.25
2022-10-13T06:23:00.752Z,100433.47
2022-10-13T06:25:30.634Z,100426.19
2022-10-13T06:28:01.078Z,100431.56
2022-10-13T06:30:30.674Z,100426.44
2022-10-13T06:33:00.505Z,100429.72
2022-10-13T06:35:30.066Z,100428.84
2022-10-13T06:38:01.398Z,100427.47
2022-10-13T06:40:31.012Z,100432.09
2022-10-13T06:43:00.808Z,100434.72
2022-10-13T06:45:30.577Z,100440.03
2022-10-13T06:48:00.473Z,100438.28
2022-10-13T06:50:32.273Z,100433.53
2022-10-13T06:53:03.542Z,100434.00
2022-10-13T06:55:33.238Z,100434.06
2022-10-13T06:58:03.113Z,100428.94
2022-10-13T07:00:33.234Z,100428.59
2022-10-13T07:03:02.872Z,100425.19
2022-10-13T07:05:33.029Z,100431.22
2022-10-13T07:08:04.028Z,100431.47
2022-10-13T07:10:33.720Z,100431.00
2022-10-13T07:13:04.996Z,100438.72
2022-10-13T07:15:35.374Z,100427.50
2022-10-13T07:18:05.052Z,100423.84
2022-10-13T07:20:35.213Z,100431.69
2022-10-13T07:23:06.188Z,100427.09
2022-10-13T07:25:35.843Z,100425.97
2022-10-13T07:28:05.654Z,100416.59
2022-10-13T07:30:36.496Z,100424.53
2022-10-13T07:33:07.480Z,100420.31
2022-10-13T07:35:39.703Z,100410.28
2022-10-13T07:38:12.723Z,100403.22
2022-10-13T07:40:42.250Z,100403.94
2022-10-13T07:43:11.757Z,100411.44
2022-10-13T07:45:41.459Z,100401.56
2022-10-13T07:48:11.748Z,100405.78
2022-10-13T07:50:41.363Z,100398.88
2022-10-13T07:53:12.433Z,100398.03
2022-10-13T07:55:41.999Z,100397.66
2022-10-13T07:58:11.803Z,100387.75
2022-10-13T08:00:41.751Z,100387.72
2022-10-13T08:03:11.709Z,100393.66
2022-10-13T08:05:41.407Z,100388.81
2022-10-13T08:08:12.325Z,100384.16
2022-10-13T08:10:42.134Z,100377.22
2022-10-13T08:13:12.760Z,100381.47
2022-10-13T08:15:43.028Z,100377.22
2022-10-13T08:18:13.378Z,100376.03
2022-10-13T08:20:44.008Z,100379.47
2022-10-13T08:23:15.031Z,100384.00
2022-10-13T08:25:45.015Z,100383.22
2022-10-13T08:28:18.134Z,100373.69
2022-10-13T08:30:47.975Z,100368.28
2022-10-13T08:33:18.866Z,100369.16
2022-10-13T08:35:48.474Z,100363.84
2022-10-13T08:38:19.523Z,100363.16
2022-10-13T08:40:49.297Z,100364.31
2022-10-13T08:43:19.971Z,100359.41
2022-10-13T08:45:51.007Z,100363.38
2022-10-13T08:48:23.708Z,100359.88
2022-10-13T08:50:55.815Z,100350.66
2022-10-13T08:53:29.281Z,100355.13
2022-10-13T08:56:00.961Z,100361.75
2022-10-13T08:58:32.208Z,100361.59
2022-10-13T09:01:12.328Z,100345.28
2022-10-13T09:03:46.306Z,100343.59
2022-10-13T09:06:18.413Z,100344.59
2022-10-13T09:08:53.635Z,100338.28
2022-10-13T09:11:24.020Z,100345.44
2022-10-13T09:13:57.821Z,100346.44
2022-10-13T09:16:29.051Z,100344.44
2022-10-13T09:19:13.288Z,100342.59
2022-10-13T09:21:43.323Z,100346.84
2022-10-13T09:24:16.602Z,100347.22
2022-10-13T09:26:47.153Z,100343.47
2022-10-13T09:29:18.414Z,100345.13
2022-10-13T09:31:48.132Z,100335.06
2022-10-13T09:34:25.036Z,100334.44
2022-10-13T09:36:58.143Z,100336.00
2022-10-13T09:39:29.888Z,100337.59
2022-10-13T09:42:18.249Z,100334.59
2022-10-13T09:44:48.329Z,100319.72
2022-10-13T09:47:20.869Z,100325.19
2022-10-13T09:50:04.696Z,100320.47
2022-10-13T09:52:36.834Z,100321.88
2022-10-13T09:55:32.150Z,100311.31
2022-10-13T09:58:05.828Z,100318.53
2022-10-13T10:00:36.735Z,100303.44
2022-10-13T10:03:11.523Z,100305.91
2022-10-13T10:05:45.839Z,100295.50
2022-10-13T10:08:17.854Z,100293.31
2022-10-13T10:10:48.973Z,100291.16
2022-10-13T10:13:19.006Z,100288.69
2022-10-13T10:15:53.826Z,100278.06
2022-10-13T10:18:27.489Z,100288.19
2022-10-13T10:21:01.586Z,100284.34
2022-10-13T10:23:38.216Z,100285.06
2022-10-13T10:26:12.932Z,100283.72
2022-10-13T10:28:51.797Z,100278.31
2022-10-13T10:31:31.323Z,100264.34
2022-10-13T10:34:08.136Z,100258.94
2022-10-13T10:36:42.891Z,100263.81
2022-10-13T10:39:18.905Z,100261.09
2022-10-13T10:41:54.393Z,100249.69
2022-10-13T10:44:27.113Z,100249.16
2022-10-13T10:47:01.008Z,100238.03
2022-10-13T10:49:31.867Z,100238.41
2022-10-13T10:52:02.693Z,100238.56
2022-10-13T10:54:39.862Z,100241.28
2022-10-13T10:57:13.957Z,100231.50
2022-10-13T10:59:52.755Z,100225.44
2022-10-13T11:02:42.314Z,100220.06
2022-10-13T11:05:12.839Z,100218.38
2022-10-13T11:08:01.060Z,100220.22
2022-10-13T11:10:32.030Z,100226.47
2022-10-13T11:13:26.187Z,100202.16
2022-10-13T11:15:57.939Z,100197.97
2022-10-13T11:18:46.610Z,100198.50
2022-10-13T11:21:16.184Z,100191.06
2022-10-13T11:23:46.701Z,100188.34
2022-10-13T11:26:42.598Z,100175.53
2022-10-13T11:29:38.746Z,100172.81
2022-10-13T11:32:41.402Z,100174.34
2022-10-13T11:35:21.640Z,100166.59
2022-10-13T11:38:07.171Z,100167.09
2022-10-13T11:40:41.484Z,100159.00
2022-10-13T11:43:18.332Z,100154.59
2022-10-13T11:46:00.129Z,100162.69
2022-10-13T11:48:49.966Z,100156.78
2022-10-13T11:51:27.286Z,100151.38
2022-10-13T11:54:00.848Z,100158.00
2022-10-13T11:56:36.323Z,100147.19
2022-10-13T11:59:20.329Z,100138.56
2022-10-13T12:01:53.957Z,100137.88
2022-10-13T12:04:25.835Z,100130.78
2022-10-13T12:06:58.346Z,100137.72
2022-10-13T12:09:28.771Z,100134.69
2022-10-13T12:12:01.354Z,100136.72
2022-10-13T12:14:33.255Z,100139.25
2022-10-13T12:17:03.507Z,100142.44
2022-10-13T12:19:34.779Z,100137.03
2022-10-13T12:22:04.331Z,100136.03
2022-10-13T12:24:34.036Z,100128.47
2022-10-13T12:27:10.992Z,100123.53
2022-10-13T12:29:41.604Z,100132.84
2022-10-13T12:32:19.811Z,100126.41
2022-10-13T12:34:50.874Z,100121.53
2022-10-13T12:37:27.165Z,100113.78
2022-10-13T12:39:57.625Z,100112.03
2022-10-13T12:42:29.861Z,100123.19
2022-10-13T12:45:00.100Z,100117.28
2022-10-13T12:47:37.771Z,100100.94
2022-10-13T12:50:28.515Z,100099.59
2022-10-13T12:53:04.760Z,100104.16
2022-10-13T12:55:34.516Z,100091.13
2022-10-13T12:58:04.194Z,100095.06
2022-10-13T13:00:33.884Z,100094.53
2022-10-13T13:03:04.831Z,100088.44
2022-10-13T13:05:36.067Z,100081.72
2022-10-13T13:08:07.962Z,100078.34
2022-10-13T13:10:37.665Z,100076.63
2022-10-13T13:13:14.367Z,100076.47
2022-10-13T13:15:45.642Z,100068.53
2022-10-13T13:18:30.451Z,100070.41
2022-10-13T13:21:03.525Z,100069.53
2022-10-13T13:23:35.929Z,100072.25
2022-10-13T13:26:08.291Z,100071.41
2022-10-13T13:28:44.231Z,100066.53
2022-10-13T13:31:14.671Z,100062.78
2022-10-13T13:33:48.054Z,100070.56
2022-10-13T13:36:19.123Z,100072.25
2022-10-13T13:38:50.159Z,100063.97
2022-10-13T13:41:20.022Z,100069.22
2022-10-13T13:43:49.666Z,100060.44
2022-10-13T13:46:20.566Z,100058.75
2022-10-13T13:48:50.382Z,100060.59
2022-10-13T13:51:20.092Z,100069.88
2022-10-13T13:53:51.116Z,100077.31
2022-10-13T13:56:21.548Z,100070.56
2022-10-13T13:58:51.385Z,100071.25
2022-10-13T14:01:21.353Z,100075.13
2022-10-13T14:03:51.163Z,100083.69
2022-10-13T14:06:21.926Z,100086.75
2022-10-13T14:08:53.270Z,100077.47
2022-10-13T14:11:22.973Z,100073.25
2022-10-13T14:13:53.296Z,100068.72
2022-10-13T14:16:23.378Z,100073.94
2022-10-13T14:18:53.016Z,100081.34
2022-10-13T14:21:22.880Z,100084.72
2022-10-13T14:23:53.783Z,100083.06
2022-10-13T14:26:23.890Z,100080.19
2022-10-13T14:28:53.443Z,100080.34
2022-10-13T14:31:24.351Z,100077.66
2022-10-13T14:33:54.553Z,100078.00
2022-10-13T14:36:24.324Z,100079.16
2022-10-13T14:38:55.341Z,100069.19
2022-10-13T14:41:24.951Z,100079.16
2022-10-13T14:43:55.417Z,100085.56
2022-10-13T14:46:25.479Z,100092.16
2022-10-13T14:48:56.038Z,100083.72
2022-10-13T14:51:25.999Z,100082.72
2022-10-13T14:53:56.886Z,100081.84
2022-10-13T14:56:27.532Z,100079.50
2022-10-13T14:58:58.197Z,100061.09
2022-10-13T15:01:27.856Z,100061.78
2022-10-13T15:03:57.483Z,100054.03
2022-10-13T15:06:27.619Z,100055.03
2022-10-13T15:08:59.067Z,100060.09
2022-10-13T15:11:28.822Z,100052.69
2022-10-13T15:13:58.896Z,100047.94
2022-10-13T15:16:29.887Z,100045.44
2022-10-13T15:19:00.353Z,100049.78
2022-10-13T15:21:29.916Z,100041.19
2022-10-13T15:24:01.502Z,100038.16
2022-10-13T15:26:31.310Z,100042.19
2022-10-13T15:29:01.118Z,100044.50
2022-10-13T15:31:31.490Z,100044.47
2022-10-13T15:34:02.004Z,100048.50
2022-10-13T15:36:32.920Z,100048.31
2022-10-13T15:39:03.983Z,100037.19
2022-10-13T15:41:35.430Z,100045.44
2022-10-13T15:44:05.069Z,100044.91
2022-10-13T15:46:35.085Z,100048.09
2022-10-13T15:49:04.970Z,100043.03
2022-10-13T15:51:34.601Z,100039.97
2022-10-13T15:54:05.621Z,100045.00
2022-10-13T15:56:35.203Z,100045.19
2022-10-13T15:59:04.973Z,100048.16
2022-10-13T16:01:35.078Z,100050.19
2022-10-13T16:04:04.842Z,100047.66
2022-10-13T16:06:35.853Z,100052.22
2022-10-13T16:09:08.414Z,100042.75
2022-10-13T16:11:38.036Z,100044.59
2022-10-13T16:14:07.909Z,100045.78
2022-10-13T16:16:37.572Z,100043.25
2022-10-13T16:19:07.295Z,100040.19
2022-10-13T16:21:37.412Z,100046.06
2022-10-13T16:24:08.939Z,100040.28
2022-10-13T16:26:38.478Z,100040.44
2022-10-13T16:29:08.146Z,100042.78
2022-10-13T16:31:37.881Z,100040.03
2022-10-13T16:34:07.711Z,100036.97
2022-10-13T16:36:37.419Z,100043.53
2022-10-13T16:39:08.644Z,100045.69
2022-10-13T16:41:38.894Z,100039.91
2022-10-13T16:44:08.400Z,100048.31
2022-10-13T16:46:38.013Z,100046.75
2022-10-13T16:49:07.697Z,100051.91
2022-10-13T16:51:38.777Z,100048.56
2022-10-13T16:54:10.843Z,100053.69
2022-10-13T16:56:40.374Z,100055.88
2022-10-13T16:59:11.413Z,100056.19
2022-10-13T17:01:41.389Z,100057.84
2022-10-13T17:04:10.921Z,100063.38
2022-10-13T17:06:41.043Z,100070.38
2022-10-13T17:09:12.424Z,100078.59
2022-10-13T17:11:43.499Z,100074.00
2022-10-13T17:14:13.447Z,100070.47
2022-10-13T17:16:44.241Z,100071.38
2022-10-13T17:19:14.052Z,100070.25
2022-10-13T17:21:44.244Z,100076.09
2022-10-13T17:24:15.611Z,100075.69
2022-10-13T17:26:45.689Z,100076.47
2022-10-13T17:29:15.278Z,100079.31
2022-10-13T17:31:45.277Z,100084.13
2022-10-13T17:34:14.905Z,100083.59
2022-10-13T17:36:44.592Z,100084.63
2022-10-13T17:39:17.661Z,100082.81
2022-10-13T17:41:47.294Z,100088.03
2022-10-13T17:44:20.519Z,100084.31
2022-10-13T17:46:50.149Z,100089.31
2022-10-13T17:49:20.078Z,100073.34
2022-10-13T17:51:51.736Z,100084.09
2022-10-13T17:54:23.139Z,100082.72
2022-10-13T17:56:55.956Z,100090.25
2022-10-13T17:59:25.595Z,100088.88
2022-10-13T18:01:55.459Z,100086.59
2022-10-13T18:04:25.389Z,100084.88
2022-10-13T18:06:54.888Z,100090.00
2022-10-13T18:09:26.096Z,100082.84
2022-10-13T18:11:56.109Z,100077.00
2022-10-13T18:14:30.291Z,100082.38
2022-10-13T18:16:59.799Z,100080.97
2022-10-13T18:19:29.743Z,100078.84
2022-10-13T18:21:59.343Z,100085.66
2022-10-13T18:24:30.229Z,100091.19
2022-10-13T18:26:59.847Z,100094.28
2022-10-13T18:29:29.591Z,100092.63
2022-10-13T18:32:00.462Z,100104.50
2022-10-13T18:34:30.371Z,100102.56
2022-10-13T18:37:00.238Z,100103.03
2022-10-13T18:39:31.843Z,100089.91
2022-10-13T18:42:02.016Z,100091.84
2022-10-13T18:44:31.560Z,100091.84
2022-10-13T18:47:01.387Z,100095.00
2022-10-13T18:49:34.146Z,100097.00
2022-10-13T18:52:04.303Z,100100.94
2022-10-13T18:54:35.343Z,100107.44
2022-10-13T18:57:04.927Z,100099.69
2022-10-13T18:59:38.702Z,100113.09
2022-10-13T19:02:08.387Z,100112.13
2022-10-13T19:04:39.396Z,100123.00
2022-10-13T19:07:08.990Z,100119.63
2022-10-13T19:09:40.354Z,100120.19
2022-10-13T19:12:10.394Z,100125.41
2022-10-13T19:14:40.353Z,100122.13
2022-10-13T19:17:10.246Z,100123.56
2022-10-13T19:19:40.808Z,100129.78
2022-10-13T19:22:11.016Z,100127.66
2022-10-13T19:24:42.076Z,100127.47
2022-10-13T19:27:11.638Z,100120.44
2022-10-13T19:29:41.333Z,100132.25
2022-10-13T19:32:11.434Z,100129.69
2022-10-13T19:34:41.095Z,100116.19
2022-10-13T19:37:11.213Z,100125.47
2022-10-13T19:39:42.497Z,100120.53
2022-10-13T19:42:12.038Z,100127.31
2022-10-13T19:44:41.858Z,100121.66
2022-10-13T19:47:11.541Z,100131.00
2022-10-13T19:49:41.098Z,100129.44
2022-10-13T19:52:10.952Z,100131.00
2022-10-13T19:54:41.950Z,100130.84
2022-10-13T19:57:11.787Z,100132.53
2022-10-13T19:59:46.716Z,100130.72
2022-10-13T20:02:17.239Z,100133.91
2022-10-13T20:04:47.092Z,100130.00
2022-10-13T20:07:16.624Z,100121.38
2022-10-13T20:09:47.945Z,100123.91
2022-10-13T20:12:17.509Z,100128.69
2022-10-13T20:14:47.929Z,100124.91
2022-10-13T20:17:17.482Z,100126.31
2022-10-13T20:19:47.041Z,100119.28
2022-10-13T20:22:16.598Z,100122.09
2022-10-13T20:24:46.134Z,100119.81
2022-10-13T20:27:17.143Z,100120.56
2022-10-13T20:29:47.160Z,100118.56
2022-10-13T20:32:17.420Z,100118.72
2022-10-13T20:34:47.103Z,100116.44
2022-10-13T20:37:18.435Z,100112.31
2022-10-13T20:39:48.578Z,100117.53
2022-10-13T20:42:20.792Z,100122.63
2022-10-13T20:44:50.639Z,100127.41
2022-10-13T20:47:20.581Z,100127.69
2022-10-13T20:49:50.204Z,100124.53
2022-10-13T20:52:20.378Z,100121.59
2022-10-13T20:54:49.957Z,100123.47
2022-10-13T20:57:21.392Z,100128.00
2022-10-13T20:59:51.400Z,100132.50
2022-10-13T21:02:21.525Z,100128.25
2022-10-13T21:04:51.139Z,100122.34
2022-10-13T21:07:21.221Z,100131.34
2022-10-13T21:09:53.842Z,100126.09
2022-10-13T21:12:27.119Z,100118.06
2022-10-13T21:14:57.067Z,100118.50
2022-10-13T21:17:29.973Z,100110.47
2022-10-13T21:19:59.675Z,100117.47
2022-10-13T21:22:29.303Z,100114.19
2022-10-13T21:24:58.938Z,100115.41
2022-10-13T21:27:29.803Z,100120.69
2022-10-13T21:29:59.602Z,100110.13
2022-10-13T21:32:30.882Z,100108.97
2022-10-13T21:35:00.947Z,100114.19
2022-10-13T21:37:30.471Z,100106.28
2022-10-13T21:40:00.058Z,100104.72
2022-10-13T21:42:31.959Z,100103.75
2022-10-13T21:45:03.134Z,100108.09
2022-10-13T21:47:33.367Z,100109.78
2022-10-13T21:50:04.393Z,100113.59
2022-10-13T21:52:35.470Z,100106.94
2022-10-13T21:55:05.339Z,100101.56
2022-10-13T21:57:36.456Z,100100.78
2022-10-13T22:00:06.886Z,100100.59
2022-10-13T22:02:36.674Z,100099.22
2022-10-13T22:05:06.912Z,100094.16
2022-10-13T22:07:37.164Z,100095.38
2022-10-13T22:10:07.120Z,100092.44
2022-10-13T22:12:40.363Z,100092.56
2022-10-13T22:15:11.310Z,100094.69
2022-10-13T22:17:41.359Z,100093.81
2022-10-13T22:20:11.279Z,100083.94
2022-10-13T22:22:40.913Z,100085.88
2022-10-13T22:25:10.862Z,100084.13
2022-10-13T22:27:41.843Z,100076.00
2022-10-13T22:30:12.016Z,100078.31
2022-10-13T22:32:41.933Z,100077.56
2022-10-13T22:35:11.906Z,100084.47
2022-10-13T22:37:41.844Z,100093.47
2022-10-13T22:40:12.029Z,100094.72
2022-10-13T22:42:43.126Z,100088.25
2022-10-13T22:45:12.738Z,100077.28
2022-10-13T22:47:42.462Z,100085.72
2022-10-13T22:50:12.256Z,100081.00
2022-10-13T22:52:41.935Z,100090.94
2022-10-13T22:55:11.837Z,100085.81
2022-10-13T22:57:41.478Z,100090.38
2022-10-13T23:00:13.247Z,100086.91
2022-10-13T23:02:42.946Z,100086.13
2022-10-13T23:05:15.878Z,100094.38
2022-10-13T23:07:45.467Z,100096.47
2022-10-13T23:10:15.213Z,100093.91
2022-10-13T23:12:45.272Z,100100.22
2022-10-13T23:15:17.115Z,100097.47
2022-10-13T23:17:47.134Z,100093.59
2022-10-13T23:20:16.796Z,100092.47
2022-10-13T23:22:46.564Z,100093.47
2022-10-13T23:25:16.182Z,100093.63
2022-10-13T23:27:46.037Z,100096.03
2022-10-13T23:30:17.064Z,100101.16
2022-10-13T23:32:46.620Z,100100.00
2022-10-13T23:35:16.215Z,100089.44
2022-10-13T23:37:46.127Z,100089.16
2022-10-13T23:40:15.811Z,100083.13
2022-10-13T23:42:45.590Z,100082.91
2022-10-13T23:45:15.175Z,100082.91
2022-10-13T23:47:46.197Z,100092.19
2022-10-13T23:50:16.124Z,100089.38
2022-10-13T23:52:45.672Z,100084.72
2022-10-13T23:55:15.403Z,100089.41
2022-10-13T23:57:45.084Z,100076.34
